createdAt,value
2017-12-20T00:01:24.491Z,92.05
2017-12-20T00:03:52.796Z,91.90
2017-12-20T00:06:21.776Z,91.67
2017-12-20T00:08:50.089Z,91.98
2017-12-20T00:11:18.404Z,92.29
2017-12-20T00:13:46.751Z,92.38
2017-12-20T00:16:15.068Z,92.09
2017-12-20T00:18:43.384Z,92.04
2017-12-20T00:21:11.761Z,91.87
2017-12-20T00:23:40.477Z,91.59
2017-12-20T00:26:08.918Z,91.56
2017-12-20T00:28:37.547Z,91.54
2017-12-20T00:31:05.859Z,91.54
2017-12-20T00:33:34.888Z,91.36
2017-12-20T00:36:03.961Z,91.36
2017-12-20T00:38:32.804Z,91.55
2017-12-20T00:41:01.115Z,91.52
2017-12-20T00:43:29.428Z,91.34
2017-12-20T00:45:57.796Z,91.22
2017-12-20T00:48:26.096Z,91.22
2017-12-20T00:50:54.396Z,91.18
2017-12-20T00:53:23.110Z,91.23
2017-12-20T00:55:51.424Z,91.17
2017-12-20T00:58:19.735Z,91.22
2017-12-20T01:00:48.107Z,91.28
2017-12-20T01:03:16.417Z,91.42
2017-12-20T01:05:45.483Z,91.54
2017-12-20T01:08:13.844Z,91.47
2017-12-20T01:10:42.380Z,91.72
2017-12-20T01:13:10.687Z,91.66
2017-12-20T01:15:39.251Z,91.41
2017-12-20T01:18:07.770Z,91.16
2017-12-20T01:20:36.097Z,91.05
2017-12-20T01:23:04.766Z,90.88
2017-12-20T01:25:33.123Z,90.81
2017-12-20T01:28:01.454Z,90.62
2017-12-20T01:30:29.881Z,90.47
2017-12-20T01:32:58.201Z,90.58
2017-12-20T01:35:26.534Z,90.70
2017-12-20T01:37:55.108Z,90.83
2017-12-20T01:40:23.424Z,90.97
2017-12-20T01:42:51.748Z,91.00
2017-12-20T01:45:20.273Z,90.97
2017-12-20T01:47:48.633Z,90.95
2017-12-20T01:50:17.533Z,91.01
2017-12-20T01:52:45.890Z,90.95
2017-12-20T01:55:14.319Z,91.06
2017-12-20T01:57:42.644Z,91.26
2017-12-20T02:00:11.028Z,91.94
2017-12-20T02:02:39.332Z,92.04
2017-12-20T02:05:07.640Z,91.92
2017-12-20T02:07:35.984Z,91.67
2017-12-20T02:10:04.303Z,91.57
2017-12-20T02:12:32.619Z,91.54
2017-12-20T02:15:01.140Z,91.38
2017-12-20T02:17:29.482Z,91.58
2017-12-20T02:19:57.792Z,91.67
2017-12-20T02:22:26.139Z,91.58
2017-12-20T02:24:54.455Z,91.91
2017-12-20T02:27:23.524Z,91.93
2017-12-20T02:29:52.903Z,92.15
2017-12-20T02:32:21.850Z,92.19
2017-12-20T02:34:50.188Z,92.13
2017-12-20T02:37:18.560Z,91.92
2017-12-20T02:39:46.868Z,92.17
2017-12-20T02:42:15.435Z,92.64
2017-12-20T02:44:43.909Z,92.86
2017-12-20T02:47:12.216Z,92.88
2017-12-20T02:49:40.535Z,92.84
2017-12-20T02:52:08.897Z,92.75
2017-12-20T02:54:37.221Z,92.73
2017-12-20T02:57:05.803Z,92.62
2017-12-20T02:59:34.952Z,92.47
2017-12-20T03:02:03.267Z,92.39
2017-12-20T03:04:31.588Z,92.36
2017-12-20T03:06:59.950Z,92.28
2017-12-20T03:09:28.256Z,92.46
2017-12-20T03:11:56.842Z,92.34
2017-12-20T03:14:25.666Z,92.13
2017-12-20T03:16:54.851Z,92.26
2017-12-20T03:19:23.159Z,92.14
2017-12-20T03:21:52.284Z,92.07
2017-12-20T03:24:21.536Z,92.03
2017-12-20T03:26:49.850Z,91.94
2017-12-20T03:29:18.471Z,91.79
2017-12-20T03:31:46.777Z,92.16
2017-12-20T03:34:15.111Z,92.61
2017-12-20T03:36:44.142Z,92.95
2017-12-20T03:39:12.452Z,92.71
2017-12-20T03:41:40.756Z,92.46
2017-12-20T03:44:09.104Z,92.48
2017-12-20T03:46:38.003Z,92.41
2017-12-20T03:49:06.320Z,91.97
2017-12-20T03:51:34.676Z,91.64
2017-12-20T03:54:02.982Z,91.41
2017-12-20T03:56:31.292Z,91.46
2017-12-20T03:58:59.636Z,91.57
2017-12-20T04:01:27.956Z,91.77
2017-12-20T04:03:57.049Z,91.76
2017-12-20T04:06:25.452Z,91.94
2017-12-20T04:08:53.760Z,92.15
2017-12-20T04:11:22.074Z,92.22
2017-12-20T04:13:50.446Z,92.25
2017-12-20T04:16:18.764Z,92.21
2017-12-20T04:18:47.716Z,92.05
2017-12-20T04:21:16.084Z,92.01
2017-12-20T04:23:45.520Z,91.82
2017-12-20T04:26:13.857Z,91.79
2017-12-20T04:28:42.228Z,91.96
2017-12-20T04:31:10.557Z,92.16
2017-12-20T04:33:38.867Z,92.29
2017-12-20T04:36:07.233Z,92.31
2017-12-20T04:38:36.672Z,92.39
2017-12-20T04:41:05.009Z,92.38
2017-12-20T04:43:34.096Z,92.26
2017-12-20T04:46:03.080Z,92.37
2017-12-20T04:48:31.438Z,92.46
2017-12-20T04:50:59.889Z,92.63
2017-12-20T04:53:28.990Z,92.59
2017-12-20T04:55:57.412Z,92.55
2017-12-20T04:58:25.900Z,92.59
2017-12-20T05:00:54.984Z,92.64
2017-12-20T05:03:24.065Z,92.62
2017-12-20T05:05:52.702Z,92.60
2017-12-20T05:08:21.648Z,92.37
2017-12-20T05:10:49.988Z,92.22
2017-12-20T05:13:18.341Z,92.15
2017-12-20T05:15:46.722Z,92.00
2017-12-20T05:18:15.366Z,91.83
2017-12-20T05:20:43.760Z,91.71
2017-12-20T05:23:12.066Z,91.63
2017-12-20T05:25:40.397Z,91.71
2017-12-20T05:28:08.766Z,91.66
2017-12-20T05:30:37.180Z,91.54
2017-12-20T05:33:05.484Z,91.52
2017-12-20T05:35:33.925Z,91.39
2017-12-20T05:38:02.252Z,91.37
2017-12-20T05:40:30.581Z,91.45
2017-12-20T05:42:58.949Z,91.74
2017-12-20T05:45:27.260Z,91.72
2017-12-20T05:47:55.890Z,91.60
2017-12-20T05:50:24.265Z,91.53
2017-12-20T05:52:52.585Z,91.51
2017-12-20T05:55:20.899Z,91.55
2017-12-20T05:57:49.956Z,91.58
2017-12-20T06:00:18.259Z,91.43
2017-12-20T06:02:46.592Z,91.37
2017-12-20T06:05:14.960Z,91.45
2017-12-20T06:07:43.273Z,91.66
2017-12-20T06:10:12.070Z,91.93
2017-12-20T06:12:40.452Z,91.86
2017-12-20T06:15:08.769Z,91.93
2017-12-20T06:17:37.917Z,91.91
2017-12-20T06:20:06.300Z,91.79
2017-12-20T06:22:34.636Z,91.70
2017-12-20T06:25:04.005Z,91.54
2017-12-20T06:27:32.359Z,91.57
2017-12-20T06:30:01.684Z,91.67
2017-12-20T06:32:30.033Z,91.75
2017-12-20T06:34:58.453Z,91.81
2017-12-20T06:37:26.841Z,92.06
2017-12-20T06:39:55.143Z,92.12
2017-12-20T06:42:23.453Z,92.23
2017-12-20T06:44:51.908Z,92.45
2017-12-20T06:47:20.220Z,92.58
2017-12-20T06:49:50.629Z,92.94
2017-12-20T06:52:19.000Z,92.94
2017-12-20T06:54:47.647Z,92.61
2017-12-20T06:57:15.959Z,92.42
2017-12-20T06:59:44.345Z,92.70
2017-12-20T07:02:12.656Z,92.65
2017-12-20T07:04:40.975Z,92.52
2017-12-20T07:07:09.589Z,92.35
2017-12-20T07:09:38.559Z,92.13
2017-12-20T07:12:06.864Z,92.00
2017-12-20T07:14:36.057Z,91.82
2017-12-20T07:17:04.590Z,91.89
2017-12-20T07:19:32.895Z,91.84
2017-12-20T07:22:01.760Z,92.14
2017-12-20T07:24:30.073Z,92.22
2017-12-20T07:26:58.772Z,92.17
2017-12-20T07:29:27.508Z,92.21
2017-12-20T07:31:56.508Z,92.21
2017-12-20T07:34:24.836Z,91.94
2017-12-20T07:36:53.217Z,91.64
2017-12-20T07:39:21.656Z,91.49
2017-12-20T07:41:49.981Z,91.40
2017-12-20T07:44:18.426Z,91.23
2017-12-20T07:46:47.236Z,91.08
2017-12-20T07:49:15.551Z,90.98
2017-12-20T07:51:44.276Z,90.96
2017-12-20T07:54:13.464Z,90.86
2017-12-20T07:56:41.780Z,91.16
2017-12-20T07:59:10.797Z,91.01
2017-12-20T08:01:39.243Z,90.73
2017-12-20T08:04:07.558Z,90.69
2017-12-20T08:06:35.948Z,90.56
2017-12-20T08:09:04.261Z,90.59
2017-12-20T08:11:33.172Z,90.41
2017-12-20T08:14:02.276Z,90.19
2017-12-20T08:16:31.356Z,90.58
2017-12-20T08:18:59.668Z,90.58
2017-12-20T08:21:28.012Z,90.77
2017-12-20T08:23:56.319Z,91.03
2017-12-20T08:26:24.648Z,90.89
2017-12-20T08:28:53.008Z,90.19
2017-12-20T08:31:21.849Z,89.59
2017-12-20T08:33:50.164Z,89.58
2017-12-20T08:36:19.022Z,89.51
2017-12-20T08:38:47.352Z,91.48
2017-12-20T08:41:15.660Z,91.37
2017-12-20T08:43:44.329Z,91.80
2017-12-20T08:46:12.668Z,91.18
2017-12-20T08:48:40.968Z,90.37
2017-12-20T08:51:10.309Z,89.89
2017-12-20T08:53:38.612Z,89.37
2017-12-20T08:56:06.960Z,88.77
2017-12-20T08:58:35.320Z,88.58
2017-12-20T09:01:03.636Z,88.56
2017-12-20T09:03:31.949Z,88.54
2017-12-20T09:06:00.271Z,87.62
2017-12-20T09:08:28.578Z,87.24
2017-12-20T09:10:57.540Z,88.13
2017-12-20T09:13:25.886Z,88.14
2017-12-20T09:15:54.178Z,88.02
2017-12-20T09:18:22.987Z,87.79
2017-12-20T09:20:51.288Z,86.91
2017-12-20T09:23:19.699Z,87.45
2017-12-20T09:25:48.056Z,88.14
2017-12-20T09:28:16.364Z,87.05
2017-12-20T09:30:44.668Z,87.52
2017-12-20T09:33:13.031Z,89.83
2017-12-20T09:35:41.343Z,90.71
2017-12-20T09:38:09.652Z,90.92
2017-12-20T09:40:38.520Z,89.86
2017-12-20T09:43:07.209Z,90.02
2017-12-20T09:45:35.514Z,91.60
2017-12-20T09:48:04.384Z,91.78
2017-12-20T09:50:32.688Z,91.69
2017-12-20T09:53:01.629Z,90.82
2017-12-20T09:55:30.536Z,89.49
2017-12-20T09:57:58.844Z,88.07
2017-12-20T10:00:27.201Z,87.64
2017-12-20T10:02:55.505Z,86.54
2017-12-20T10:05:23.805Z,86.43
2017-12-20T10:07:52.151Z,86.95
2017-12-20T10:10:20.472Z,88.10
2017-12-20T10:12:48.792Z,87.31
2017-12-20T10:15:17.168Z,86.22
2017-12-20T10:17:45.476Z,86.24
2017-12-20T10:20:13.792Z,85.58
2017-12-20T10:22:42.141Z,85.88
2017-12-20T10:25:10.444Z,86.28
2017-12-20T10:27:38.744Z,86.64
2017-12-20T10:30:08.507Z,86.81
2017-12-20T10:32:36.810Z,86.14
2017-12-20T10:35:05.695Z,86.39
2017-12-20T10:37:34.001Z,86.83
2017-12-20T10:40:02.306Z,87.14
2017-12-20T10:42:31.248Z,87.77
2017-12-20T10:44:59.548Z,87.92
2017-12-20T10:47:28.595Z,87.53
2017-12-20T10:49:56.896Z,87.34
2017-12-20T10:52:25.685Z,87.07
2017-12-20T10:54:55.300Z,86.89
2017-12-20T10:57:23.604Z,86.44
2017-12-20T10:59:51.920Z,85.87
2017-12-20T11:02:20.303Z,84.72
2017-12-20T11:04:48.609Z,84.10
2017-12-20T11:07:18.216Z,84.03
2017-12-20T11:09:46.577Z,83.64
2017-12-20T11:12:14.881Z,83.03
2017-12-20T11:14:43.192Z,83.72
2017-12-20T11:17:11.550Z,83.09
2017-12-20T11:19:40.409Z,83.32
2017-12-20T11:22:08.713Z,84.22
2017-12-20T11:24:37.075Z,84.34
2017-12-20T11:27:05.455Z,84.29
2017-12-20T11:29:33.733Z,83.71
2017-12-20T11:32:02.233Z,84.32
2017-12-20T11:34:30.564Z,87.61
2017-12-20T11:36:59.225Z,89.65
2017-12-20T11:39:27.580Z,88.11
2017-12-20T11:41:55.892Z,88.39
2017-12-20T11:44:24.814Z,88.10
2017-12-20T11:46:53.189Z,85.91
2017-12-20T11:49:21.592Z,85.43
2017-12-20T11:51:50.572Z,85.79
2017-12-20T11:54:19.555Z,86.04
2017-12-20T11:56:47.871Z,84.95
2017-12-20T11:59:16.180Z,84.60
2017-12-20T12:01:44.553Z,84.82
2017-12-20T12:04:12.923Z,84.91
2017-12-20T12:06:41.573Z,85.10
2017-12-20T12:09:09.940Z,85.05
2017-12-20T12:11:38.251Z,84.45
2017-12-20T12:14:06.586Z,84.25
2017-12-20T12:16:34.941Z,84.17
2017-12-20T12:19:03.368Z,83.81
2017-12-20T12:21:31.673Z,83.30
2017-12-20T12:24:00.101Z,83.80
2017-12-20T12:26:29.917Z,82.97
2017-12-20T12:28:58.213Z,82.89
2017-12-20T12:31:27.321Z,83.08
2017-12-20T12:33:55.617Z,83.51
2017-12-20T12:36:23.940Z,82.63
2017-12-20T12:38:54.249Z,83.50
2017-12-20T12:41:22.569Z,82.68
2017-12-20T12:43:51.677Z,82.26
2017-12-20T12:46:20.048Z,81.55
2017-12-20T12:48:48.356Z,80.62
2017-12-20T12:51:16.656Z,80.78
2017-12-20T12:53:45.480Z,80.60
2017-12-20T12:56:13.788Z,80.65
2017-12-20T12:58:42.089Z,79.93
2017-12-20T13:01:10.706Z,80.22
2017-12-20T13:03:39.010Z,80.62
2017-12-20T13:06:07.312Z,80.45
2017-12-20T13:08:35.678Z,79.62
2017-12-20T13:11:03.982Z,79.56
2017-12-20T13:13:32.289Z,80.97
2017-12-20T13:16:01.075Z,80.10
2017-12-20T13:18:29.377Z,79.99
2017-12-20T13:20:57.688Z,80.20
2017-12-20T13:23:26.441Z,81.20
2017-12-20T13:25:54.940Z,80.27
2017-12-20T13:28:23.257Z,80.50
2017-12-20T13:30:51.605Z,82.13
2017-12-20T13:33:19.936Z,81.10
2017-12-20T13:35:48.256Z,81.32
2017-12-20T13:38:17.080Z,81.27
2017-12-20T13:40:45.380Z,83.30
2017-12-20T13:43:13.744Z,83.12
2017-12-20T13:45:42.113Z,82.52
2017-12-20T13:48:10.416Z,82.75
2017-12-20T13:50:38.720Z,82.31
2017-12-20T13:53:07.156Z,83.10
2017-12-20T13:55:35.456Z,82.67
2017-12-20T13:58:04.531Z,82.94
2017-12-20T14:00:32.892Z,82.24
2017-12-20T14:03:01.188Z,82.61
2017-12-20T14:05:29.549Z,82.65
2017-12-20T14:07:57.881Z,82.94
2017-12-20T14:10:26.188Z,82.64
2017-12-20T14:12:54.711Z,82.78
2017-12-20T14:15:23.012Z,82.77
2017-12-20T14:17:51.336Z,83.10
2017-12-20T14:20:19.692Z,83.25
2017-12-20T14:22:47.999Z,83.22
2017-12-20T14:25:16.311Z,83.52
2017-12-20T14:27:44.663Z,83.40
2017-12-20T14:30:13.905Z,83.28
2017-12-20T14:32:42.208Z,83.35
2017-12-20T14:35:10.539Z,82.96
2017-12-20T14:37:38.896Z,82.80
2017-12-20T14:40:08.475Z,82.96
2017-12-20T14:42:37.301Z,83.18
2017-12-20T14:45:06.437Z,83.92
2017-12-20T14:47:35.556Z,85.46
2017-12-20T14:50:03.865Z,84.23
2017-12-20T14:52:32.877Z,84.25
2017-12-20T14:55:01.800Z,83.97
2017-12-20T14:57:30.904Z,84.31
2017-12-20T14:59:59.337Z,84.24
2017-12-20T15:02:28.132Z,84.22
2017-12-20T15:04:57.360Z,85.40
2017-12-20T15:07:25.814Z,86.16
2017-12-20T15:09:54.731Z,87.13
2017-12-20T15:12:23.055Z,87.55
2017-12-20T15:14:51.437Z,86.88
2017-12-20T15:17:20.606Z,86.86
2017-12-20T15:19:49.416Z,86.75
2017-12-20T15:22:17.922Z,87.50
2017-12-20T15:24:47.020Z,87.67
2017-12-20T15:27:15.564Z,87.72
2017-12-20T15:29:44.276Z,87.42
2017-12-20T15:32:12.591Z,87.21
2017-12-20T15:34:41.568Z,87.45
2017-12-20T15:37:09.967Z,87.77
2017-12-20T15:39:38.796Z,88.01
2017-12-20T15:42:07.246Z,88.09
2017-12-20T15:44:35.657Z,88.23
2017-12-20T15:47:04.764Z,88.28
2017-12-20T15:49:33.883Z,88.29
2017-12-20T15:52:02.749Z,88.61
2017-12-20T15:54:31.149Z,88.39
2017-12-20T15:56:59.718Z,88.36
2017-12-20T15:59:28.895Z,88.53
2017-12-20T16:01:58.352Z,88.58
2017-12-20T16:04:27.484Z,88.84
2017-12-20T16:06:55.790Z,88.70
2017-12-20T16:09:24.453Z,88.36
2017-12-20T16:11:53.133Z,88.22
2017-12-20T16:14:21.563Z,88.71
2017-12-20T16:16:50.556Z,88.91
2017-12-20T16:19:19.379Z,89.05
2017-12-20T16:21:47.912Z,88.89
2017-12-20T16:24:16.191Z,89.13
2017-12-20T16:26:46.220Z,88.65
2017-12-20T16:29:14.524Z,88.53
2017-12-20T16:31:43.416Z,88.58
2017-12-20T16:34:11.958Z,88.42
2017-12-20T16:36:40.516Z,88.33
2017-12-20T16:39:09.146Z,88.26
2017-12-20T16:41:38.240Z,88.49
2017-12-20T16:44:07.249Z,88.88
2017-12-20T16:46:35.664Z,88.84
2017-12-20T16:49:04.695Z,88.75
2017-12-20T16:51:33.192Z,88.63
2017-12-20T16:54:01.982Z,88.21
2017-12-20T16:56:30.401Z,87.87
2017-12-20T16:58:58.891Z,87.82
2017-12-20T17:01:27.708Z,88.34
2017-12-20T17:03:56.888Z,88.68
2017-12-20T17:06:25.860Z,88.45
2017-12-20T17:08:54.182Z,88.30
2017-12-20T17:11:23.400Z,88.48
2017-12-20T17:13:52.546Z,88.50
2017-12-20T17:16:21.417Z,88.94
2017-12-20T17:18:49.800Z,88.72
2017-12-20T17:21:18.956Z,88.66
2017-12-20T17:23:48.056Z,88.35
2017-12-20T17:26:17.012Z,88.28
2017-12-20T17:28:45.333Z,88.35
2017-12-20T17:31:13.672Z,88.24
2017-12-20T17:33:42.336Z,88.25
2017-12-20T17:36:11.073Z,88.54
2017-12-20T17:38:40.003Z,88.36
2017-12-20T17:41:08.376Z,88.43
2017-12-20T17:43:37.526Z,88.46
2017-12-20T17:46:06.202Z,88.39
2017-12-20T17:48:34.853Z,88.29
2017-12-20T17:51:03.832Z,88.07
2017-12-20T17:53:32.160Z,88.14
2017-12-20T17:56:00.605Z,88.50
2017-12-20T17:58:29.226Z,88.95
2017-12-20T18:00:59.140Z,88.82
2017-12-20T18:03:28.427Z,88.69
2017-12-20T18:05:57.651Z,88.46
2017-12-20T18:08:26.915Z,88.52
2017-12-20T18:10:55.749Z,88.37
2017-12-20T18:13:24.924Z,88.03
2017-12-20T18:15:54.178Z,88.41
2017-12-20T18:18:22.840Z,88.55
2017-12-20T18:20:51.351Z,88.49
2017-12-20T18:23:20.659Z,88.29
2017-12-20T18:25:49.644Z,88.14
2017-12-20T18:28:18.760Z,87.76
2017-12-20T18:30:47.904Z,88.44
2017-12-20T18:33:16.868Z,88.42
2017-12-20T18:35:46.001Z,88.22
2017-12-20T18:38:14.291Z,87.89
2017-12-20T18:40:43.563Z,87.88
2017-12-20T18:43:12.311Z,88.55
2017-12-20T18:45:40.678Z,88.51
2017-12-20T18:48:09.068Z,88.62
2017-12-20T18:50:37.810Z,88.80
2017-12-20T18:53:07.202Z,88.42
2017-12-20T18:55:37.162Z,88.71
2017-12-20T18:58:06.312Z,88.62
2017-12-20T19:00:35.413Z,88.56
2017-12-20T19:03:04.560Z,88.89
2017-12-20T19:05:34.272Z,89.11
2017-12-20T19:08:02.588Z,88.61
2017-12-20T19:10:31.063Z,88.39
2017-12-20T19:12:59.852Z,88.18
2017-12-20T19:15:28.236Z,87.90
2017-12-20T19:17:56.923Z,88.08
2017-12-20T19:20:25.600Z,88.01
2017-12-20T19:22:54.689Z,87.51
2017-12-20T19:25:23.942Z,87.23
2017-12-20T19:27:52.894Z,87.35
2017-12-20T19:30:22.016Z,87.18
2017-12-20T19:32:51.253Z,87.25
2017-12-20T19:35:19.639Z,87.16
2017-12-20T19:37:48.567Z,87.40
2017-12-20T19:40:17.864Z,87.14
2017-12-20T19:42:46.912Z,86.91
2017-12-20T19:45:15.267Z,87.01
2017-12-20T19:47:44.163Z,86.96
2017-12-20T19:50:13.400Z,87.50
2017-12-20T19:52:42.628Z,87.73
2017-12-20T19:55:11.848Z,87.41
2017-12-20T19:57:40.894Z,87.27
2017-12-20T20:00:10.076Z,87.39
2017-12-20T20:02:39.106Z,87.84
2017-12-20T20:05:08.304Z,88.38
2017-12-20T20:07:37.256Z,88.18
2017-12-20T20:10:06.400Z,88.49
2017-12-20T20:12:34.768Z,88.09
2017-12-20T20:15:03.253Z,88.08
2017-12-20T20:17:31.636Z,88.75
2017-12-20T20:20:00.395Z,88.41
2017-12-20T20:22:28.763Z,88.02
2017-12-20T20:24:57.596Z,88.09
2017-12-20T20:27:26.883Z,87.60
2017-12-20T20:29:55.963Z,87.39
2017-12-20T20:32:25.230Z,87.38
2017-12-20T20:34:53.685Z,87.42
2017-12-20T20:37:22.084Z,87.57
2017-12-20T20:39:50.554Z,87.42
2017-12-20T20:42:19.471Z,87.43
2017-12-20T20:44:48.882Z,87.09
2017-12-20T20:47:17.448Z,87.15
2017-12-20T20:49:46.219Z,87.23
2017-12-20T20:52:15.947Z,87.31
2017-12-20T20:54:44.639Z,87.33
2017-12-20T20:57:14.437Z,87.20
2017-12-20T20:59:43.020Z,87.16
2017-12-20T21:02:11.820Z,87.12
2017-12-20T21:04:40.291Z,87.10
2017-12-20T21:07:08.742Z,86.49
2017-12-20T21:09:37.105Z,86.48
2017-12-20T21:12:05.963Z,86.43
2017-12-20T21:14:34.343Z,86.67
2017-12-20T21:17:02.748Z,86.83
2017-12-20T21:19:31.718Z,87.17
2017-12-20T21:22:00.017Z,87.16
2017-12-20T21:24:28.984Z,87.13
2017-12-20T21:26:57.368Z,86.78
2017-12-20T21:29:26.435Z,86.79
2017-12-20T21:31:55.589Z,86.81
2017-12-20T21:34:24.027Z,87.02
2017-12-20T21:36:52.428Z,86.85
2017-12-20T21:39:20.867Z,87.08
2017-12-20T21:41:49.254Z,86.61
2017-12-20T21:44:18.552Z,86.74
2017-12-20T21:46:46.976Z,86.83
2017-12-20T21:49:15.395Z,86.89
2017-12-20T21:51:44.702Z,87.19
2017-12-20T21:54:13.791Z,86.77
2017-12-20T21:56:42.321Z,86.65
2017-12-20T21:59:11.439Z,86.77
2017-12-20T22:01:39.964Z,86.74
2017-12-20T22:04:08.657Z,86.22
2017-12-20T22:06:37.455Z,86.24
2017-12-20T22:09:06.151Z,85.95
2017-12-20T22:11:34.622Z,86.19
2017-12-20T22:14:03.711Z,86.15
2017-12-20T22:16:32.151Z,85.48
2017-12-20T22:19:00.507Z,86.64
2017-12-20T22:21:28.844Z,86.95
2017-12-20T22:23:57.381Z,87.09
2017-12-20T22:26:26.150Z,86.78
2017-12-20T22:29:00.444Z,86.84
2017-12-20T22:31:29.444Z,86.74
2017-12-20T22:33:57.852Z,86.46
2017-12-20T22:36:26.219Z,86.28
2017-12-20T22:38:55.456Z,86.16
2017-12-20T22:41:24.016Z,86.41
2017-12-20T22:43:53.034Z,86.25
2017-12-20T22:46:22.173Z,86.08
2017-12-20T22:48:50.604Z,86.20
2017-12-20T22:51:19.752Z,86.37
2017-12-20T22:53:48.107Z,86.25
2017-12-20T22:56:16.531Z,86.62
2017-12-20T22:58:44.892Z,86.97
2017-12-20T23:01:13.263Z,86.58
2017-12-20T23:03:42.214Z,86.33
2017-12-20T23:06:10.653Z,86.84
2017-12-20T23:08:39.413Z,86.99
2017-12-20T23:11:07.827Z,86.89
2017-12-20T23:13:36.219Z,87.02
2017-12-20T23:16:04.540Z,86.94
2017-12-20T23:18:33.314Z,87.05
2017-12-20T23:21:01.621Z,86.98
2017-12-20T23:23:30.401Z,86.90
2017-12-20T23:25:58.786Z,86.73
2017-12-20T23:28:27.185Z,87.05
2017-12-20T23:30:55.353Z,87.08
2017-12-20T23:33:23.661Z,86.60
2017-12-20T23:35:51.989Z,86.39
2017-12-20T23:38:20.411Z,86.81
2017-12-20T23:40:48.735Z,86.83
2017-12-20T23:43:18.567Z,86.68
2017-12-20T23:45:46.880Z,85.96
2017-12-20T23:48:15.188Z,85.73
2017-12-20T23:50:45.035Z,85.95
2017-12-20T23:53:13.932Z,86.12
2017-12-20T23:55:43.009Z,85.94
2017-12-20T23:58:11.358Z,85.61
